sensor_id;sensor_type;location;lat;lon;timestamp;temperature;humidity
16172;DHT22;8192;53.596;10.166;2023-11-21T00:00:43;8.40;99.90
16172;DHT22;8192;53.596;10.166;2023-11-21T00:03:11;8.30;99.90
16172;DHT22;8192;53.596;10.166;2023-11-21T00:05:40;8.20;99.90
16172;DHT22;8192;53.596;10.166;2023-11-21T00:08:09;8.10;99.90
16172;DHT22;8192;53.596;10.166;2023-11-21T00:10:36;8.10;99.90
16172;DHT22;8192;53.596;10.166;2023-11-21T00:13:04;8.10;99.90
16172;DHT22;8192;53.596;10.166;2023-11-21T00:15:31;8.00;99.90
16172;DHT22;8192;53.596;10.166;2023-11-21T00:17:59;7.90;99.90
16172;DHT22;8192;53.596;10.166;2023-11-21T00:20:26;7.90;99.90
16172;DHT22;8192;53.596;10.166;2023-11-21T00:22:53;7.90;99.90
16172;DHT22;8192;53.596;10.166;2023-11-21T00:25:21;7.80;99.90
16172;DHT22;8192;53.596;10.166;2023-11-21T00:27:48;7.80;99.90
16172;DHT22;8192;53.596;10.166;2023-11-21T00:30:15;7.70;99.90
16172;DHT22;8192;53.596;10.166;2023-11-21T00:32:42;7.70;99.90
16172;DHT22;8192;53.596;10.166;2023-11-21T00:35:10;7.70;99.90
16172;DHT22;8192;53.596;10.166;2023-11-21T00:37:37;7.70;99.90
16172;DHT22;8192;53.596;10.166;2023-11-21T00:40:06;7.70;99.90
16172;DHT22;8192;53.596;10.166;2023-11-21T00:42:34;7.60;99.90
16172;DHT22;8192;53.596;10.166;2023-11-21T00:45:01;7.60;99.90
16172;DHT22;8192;53.596;10.166;2023-11-21T00:47:29;7.60;99.90
16172;DHT22;8192;53.596;10.166;2023-11-21T00:49:56;7.50;99.90
16172;DHT22;8192;53.596;10.166;2023-11-21T00:52:23;7.50;99.90
16172;DHT22;8192;53.596;10.166;2023-11-21T00:54:50;7.50;99.90
16172;DHT22;8192;53.596;10.166;2023-11-21T00:57:17;7.40;99.90
16172;DHT22;8192;53.596;10.166;2023-11-21T00:59:45;7.40;99.90
16172;DHT22;8192;53.596;10.166;2023-11-21T01:02:12;7.40;99.90
16172;DHT22;8192;53.596;10.166;2023-11-21T01:04:39;7.40;99.90
16172;DHT22;8192;53.596;10.166;2023-11-21T01:07:06;7.40;99.90
16172;DHT22;8192;53.596;10.166;2023-11-21T01:09:33;7.50;99.90
16172;DHT22;8192;53.596;10.166;2023-11-21T01:12:00;7.40;99.90
16172;DHT22;8192;53.596;10.166;2023-11-21T01:14:28;7.30;99.90
16172;DHT22;8192;53.596;10.166;2023-11-21T01:16:57;7.30;99.90
16172;DHT22;8192;53.596;10.166;2023-11-21T01:19:24;7.30;99.90
16172;DHT22;8192;53.596;10.166;2023-11-21T01:21:50;7.30;99.90
16172;DHT22;8192;53.596;10.166;2023-11-21T01:24:18;7.20;99.90
16172;DHT22;8192;53.596;10.166;2023-11-21T01:26:45;7.10;99.90
16172;DHT22;8192;53.596;10.166;2023-11-21T01:29:12;7.10;99.90
16172;DHT22;8192;53.596;10.166;2023-11-21T01:31:39;7.10;99.90
16172;DHT22;8192;53.596;10.166;2023-11-21T01:34:08;7.00;99.90
16172;DHT22;8192;53.596;10.166;2023-11-21T01:36:35;6.90;99.90
16172;DHT22;8192;53.596;10.166;2023-11-21T01:39:02;6.80;99.90
16172;DHT22;8192;53.596;10.166;2023-11-21T01:41:33;6.80;99.90
16172;DHT22;8192;53.596;10.166;2023-11-21T01:44:00;6.90;99.90
16172;DHT22;8192;53.596;10.166;2023-11-21T01:46:28;6.90;99.90
16172;DHT22;8192;53.596;10.166;2023-11-21T01:48:56;6.80;99.90
16172;DHT22;8192;53.596;10.166;2023-11-21T01:51:25;6.80;99.90
16172;DHT22;8192;53.596;10.166;2023-11-21T01:53:52;6.80;99.90
16172;DHT22;8192;53.596;10.166;2023-11-21T01:56:19;6.80;99.90
16172;DHT22;8192;53.596;10.166;2023-11-21T01:58:47;6.80;99.90
16172;DHT22;8192;53.596;10.166;2023-11-21T02:01:17;6.80;99.90
16172;DHT22;8192;53.596;10.166;2023-11-21T02:03:44;6.80;99.90
16172;DHT22;8192;53.596;10.166;2023-11-21T02:06:11;6.80;99.90
16172;DHT22;8192;53.596;10.166;2023-11-21T02:08:40;6.80;99.90
16172;DHT22;8192;53.596;10.166;2023-11-21T02:11:09;6.80;99.90
16172;DHT22;8192;53.596;10.166;2023-11-21T02:13:38;6.80;99.90
16172;DHT22;8192;53.596;10.166;2023-11-21T02:16:09;6.70;99.90
16172;DHT22;8192;53.596;10.166;2023-11-21T02:18:38;6.70;99.90
16172;DHT22;8192;53.596;10.166;2023-11-21T02:21:05;6.70;99.90
16172;DHT22;8192;53.596;10.166;2023-11-21T02:23:34;6.70;99.90
16172;DHT22;8192;53.596;10.166;2023-11-21T02:26:01;6.70;99.90
16172;DHT22;8192;53.596;10.166;2023-11-21T02:28:30;6.60;99.90
16172;DHT22;8192;53.596;10.166;2023-11-21T02:30:57;6.60;99.90
16172;DHT22;8192;53.596;10.166;2023-11-21T02:33:24;6.60;99.90
16172;DHT22;8192;53.596;10.166;2023-11-21T02:35:51;6.70;99.90
16172;DHT22;8192;53.596;10.166;2023-11-21T02:38:20;6.70;99.90
16172;DHT22;8192;53.596;10.166;2023-11-21T02:40:49;6.70;99.90
16172;DHT22;8192;53.596;10.166;2023-11-21T02:43:16;6.60;99.90
16172;DHT22;8192;53.596;10.166;2023-11-21T02:45:43;6.60;99.90
16172;DHT22;8192;53.596;10.166;2023-11-21T02:48:10;6.70;99.90
16172;DHT22;8192;53.596;10.166;2023-11-21T02:50:37;6.60;99.90
16172;DHT22;8192;53.596;10.166;2023-11-21T02:53:04;6.60;99.90
16172;DHT22;8192;53.596;10.166;2023-11-21T02:55:31;6.70;99.90
16172;DHT22;8192;53.596;10.166;2023-11-21T02:58:04;6.70;99.90
16172;DHT22;8192;53.596;10.166;2023-11-21T03:00:31;6.60;99.90
16172;DHT22;8192;53.596;10.166;2023-11-21T03:02:58;6.60;99.90
16172;DHT22;8192;53.596;10.166;2023-11-21T03:05:26;6.50;99.90
16172;DHT22;8192;53.596;10.166;2023-11-21T03:07:54;6.60;99.90
16172;DHT22;8192;53.596;10.166;2023-11-21T03:10:21;6.70;99.90
16172;DHT22;8192;53.596;10.166;2023-11-21T03:12:48;6.50;99.90
16172;DHT22;8192;53.596;10.166;2023-11-21T03:15:17;6.40;99.90
16172;DHT22;8192;53.596;10.166;2023-11-21T03:17:44;6.40;99.90
16172;DHT22;8192;53.596;10.166;2023-11-21T03:20:11;6.40;99.90
16172;DHT22;8192;53.596;10.166;2023-11-21T03:22:39;6.30;99.90
16172;DHT22;8192;53.596;10.166;2023-11-21T03:25:07;6.10;99.90
16172;DHT22;8192;53.596;10.166;2023-11-21T03:27:36;6.10;99.90
16172;DHT22;8192;53.596;10.166;2023-11-21T03:30:05;6.20;99.90
16172;DHT22;8192;53.596;10.166;2023-11-21T03:32:34;6.10;99.90
16172;DHT22;8192;53.596;10.166;2023-11-21T03:35:02;6.20;99.90
16172;DHT22;8192;53.596;10.166;2023-11-21T03:37:29;6.20;99.90
16172;DHT22;8192;53.596;10.166;2023-11-21T03:39:56;6.20;99.90
16172;DHT22;8192;53.596;10.166;2023-11-21T03:42:23;6.10;99.90
16172;DHT22;8192;53.596;10.166;2023-11-21T03:44:51;6.10;99.90
16172;DHT22;8192;53.596;10.166;2023-11-21T03:47:18;6.10;99.90
16172;DHT22;8192;53.596;10.166;2023-11-21T03:49:47;6.10;99.90
16172;DHT22;8192;53.596;10.166;2023-11-21T03:52:14;6.20;99.90
16172;DHT22;8192;53.596;10.166;2023-11-21T03:54:40;6.20;99.90
16172;DHT22;8192;53.596;10.166;2023-11-21T03:57:08;6.20;99.90
16172;DHT22;8192;53.596;10.166;2023-11-21T03:59:36;6.20;99.90
16172;DHT22;8192;53.596;10.166;2023-11-21T04:02:03;6.20;99.90
16172;DHT22;8192;53.596;10.166;2023-11-21T04:04:30;6.20;99.90
16172;DHT22;8192;53.596;10.166;2023-11-21T04:06:58;6.20;99.90
16172;DHT22;8192;53.596;10.166;2023-11-21T04:09:25;6.20;99.90
16172;DHT22;8192;53.596;10.166;2023-11-21T04:11:52;6.10;99.90
16172;DHT22;8192;53.596;10.166;2023-11-21T04:14:19;6.10;99.90
16172;DHT22;8192;53.596;10.166;2023-11-21T04:16:47;6.10;99.90
16172;DHT22;8192;53.596;10.166;2023-11-21T04:19:14;6.10;99.90
16172;DHT22;8192;53.596;10.166;2023-11-21T04:21:41;6.10;99.90
16172;DHT22;8192;53.596;10.166;2023-11-21T04:24:09;6.20;99.90
16172;DHT22;8192;53.596;10.166;2023-11-21T04:26:37;6.30;99.90
16172;DHT22;8192;53.596;10.166;2023-11-21T04:29:05;6.30;99.90
16172;DHT22;8192;53.596;10.166;2023-11-21T04:31:32;6.30;99.90
16172;DHT22;8192;53.596;10.166;2023-11-21T04:33:59;6.30;99.90
16172;DHT22;8192;53.596;10.166;2023-11-21T04:36:26;6.30;99.90
16172;DHT22;8192;53.596;10.166;2023-11-21T04:38:53;6.30;99.90
16172;DHT22;8192;53.596;10.166;2023-11-21T04:41:21;6.30;99.90
16172;DHT22;8192;53.596;10.166;2023-11-21T04:43:48;6.30;99.90
16172;DHT22;8192;53.596;10.166;2023-11-21T04:46:15;6.20;99.90
16172;DHT22;8192;53.596;10.166;2023-11-21T04:48:43;6.30;99.90
16172;DHT22;8192;53.596;10.166;2023-11-21T04:51:10;6.30;99.90
16172;DHT22;8192;53.596;10.166;2023-11-21T04:53:37;6.40;99.90
16172;DHT22;8192;53.596;10.166;2023-11-21T04:56:05;6.40;99.90
16172;DHT22;8192;53.596;10.166;2023-11-21T04:58:34;6.30;99.90
16172;DHT22;8192;53.596;10.166;2023-11-21T05:01:01;6.20;99.90
16172;DHT22;8192;53.596;10.166;2023-11-21T05:03:28;6.30;99.90
16172;DHT22;8192;53.596;10.166;2023-11-21T05:05:56;6.30;99.90
16172;DHT22;8192;53.596;10.166;2023-11-21T05:08:23;6.30;99.90
16172;DHT22;8192;53.596;10.166;2023-11-21T05:10:51;6.30;99.90
16172;DHT22;8192;53.596;10.166;2023-11-21T05:13:19;6.40;99.90
16172;DHT22;8192;53.596;10.166;2023-11-21T05:15:47;6.30;99.90
16172;DHT22;8192;53.596;10.166;2023-11-21T05:18:15;6.30;99.90
16172;DHT22;8192;53.596;10.166;2023-11-21T05:20:42;6.30;99.90
16172;DHT22;8192;53.596;10.166;2023-11-21T05:23:09;6.20;99.90
16172;DHT22;8192;53.596;10.166;2023-11-21T05:25:36;6.20;99.90
16172;DHT22;8192;53.596;10.166;2023-11-21T05:28:03;6.10;99.90
16172;DHT22;8192;53.596;10.166;2023-11-21T05:30:30;6.20;99.90
16172;DHT22;8192;53.596;10.166;2023-11-21T05:32:58;6.20;99.90
16172;DHT22;8192;53.596;10.166;2023-11-21T05:35:25;6.10;99.90
16172;DHT22;8192;53.596;10.166;2023-11-21T05:37:52;6.10;99.90
16172;DHT22;8192;53.596;10.166;2023-11-21T05:40:20;6.10;99.90
16172;DHT22;8192;53.596;10.166;2023-11-21T05:42:47;6.10;99.90
16172;DHT22;8192;53.596;10.166;2023-11-21T05:45:15;6.10;99.90
16172;DHT22;8192;53.596;10.166;2023-11-21T05:47:44;6.10;99.90
16172;DHT22;8192;53.596;10.166;2023-11-21T05:50:15;6.20;99.90
16172;DHT22;8192;53.596;10.166;2023-11-21T05:52:43;6.10;99.90
16172;DHT22;8192;53.596;10.166;2023-11-21T05:55:14;6.20;99.90
16172;DHT22;8192;53.596;10.166;2023-11-21T05:57:43;6.10;99.90
16172;DHT22;8192;53.596;10.166;2023-11-21T06:00:11;6.00;99.90
16172;DHT22;8192;53.596;10.166;2023-11-21T06:02:44;5.90;99.90
16172;DHT22;8192;53.596;10.166;2023-11-21T06:05:10;5.90;99.90
16172;DHT22;8192;53.596;10.166;2023-11-21T06:07:39;5.90;99.90
16172;DHT22;8192;53.596;10.166;2023-11-21T06:10:08;5.90;99.90
16172;DHT22;8192;53.596;10.166;2023-11-21T06:12:35;6.00;99.90
16172;DHT22;8192;53.596;10.166;2023-11-21T06:15:03;6.10;99.90
16172;DHT22;8192;53.596;10.166;2023-11-21T06:17:31;6.10;99.90
16172;DHT22;8192;53.596;10.166;2023-11-21T06:20:00;6.10;99.90
16172;DHT22;8192;53.596;10.166;2023-11-21T06:22:29;6.10;99.90
16172;DHT22;8192;53.596;10.166;2023-11-21T06:24:58;6.20;99.90
16172;DHT22;8192;53.596;10.166;2023-11-21T06:27:25;6.20;99.90
16172;DHT22;8192;53.596;10.166;2023-11-21T06:29:53;6.10;99.90
16172;DHT22;8192;53.596;10.166;2023-11-21T06:32:20;6.10;99.90
16172;DHT22;8192;53.596;10.166;2023-11-21T06:34:48;6.00;99.90
16172;DHT22;8192;53.596;10.166;2023-11-21T06:37:15;6.00;99.90
16172;DHT22;8192;53.596;10.166;2023-11-21T06:39:43;6.00;99.90
16172;DHT22;8192;53.596;10.166;2023-11-21T06:42:11;5.90;99.90
16172;DHT22;8192;53.596;10.166;2023-11-21T06:44:38;5.90;99.90
16172;DHT22;8192;53.596;10.166;2023-11-21T06:47:07;5.90;99.90
16172;DHT22;8192;53.596;10.166;2023-11-21T06:49:34;6.00;99.90
16172;DHT22;8192;53.596;10.166;2023-11-21T06:52:02;6.00;99.90
16172;DHT22;8192;53.596;10.166;2023-11-21T06:54:30;6.00;99.90
16172;DHT22;8192;53.596;10.166;2023-11-21T06:56:57;6.20;99.90
16172;DHT22;8192;53.596;10.166;2023-11-21T06:59:25;6.10;99.90
16172;DHT22;8192;53.596;10.166;2023-11-21T07:01:52;6.10;99.90
16172;DHT22;8192;53.596;10.166;2023-11-21T07:04:19;6.10;99.90
16172;DHT22;8192;53.596;10.166;2023-11-21T07:06:49;6.10;99.90
16172;DHT22;8192;53.596;10.166;2023-11-21T07:09:15;6.00;99.90
16172;DHT22;8192;53.596;10.166;2023-11-21T07:11:43;6.00;99.90
16172;DHT22;8192;53.596;10.166;2023-11-21T07:14:10;6.10;99.90
16172;DHT22;8192;53.596;10.166;2023-11-21T07:16:39;6.00;99.90
16172;DHT22;8192;53.596;10.166;2023-11-21T07:19:06;6.00;99.90
16172;DHT22;8192;53.596;10.166;2023-11-21T07:21:33;6.00;99.90
16172;DHT22;8192;53.596;10.166;2023-11-21T07:24:01;6.00;99.90
16172;DHT22;8192;53.596;10.166;2023-11-21T07:26:28;6.10;99.90
16172;DHT22;8192;53.596;10.166;2023-11-21T07:28:58;6.10;99.90
16172;DHT22;8192;53.596;10.166;2023-11-21T07:31:25;6.10;99.90
16172;DHT22;8192;53.596;10.166;2023-11-21T07:33:53;6.10;99.90
16172;DHT22;8192;53.596;10.166;2023-11-21T07:36:23;6.20;99.90
16172;DHT22;8192;53.596;10.166;2023-11-21T07:38:50;6.20;99.90
16172;DHT22;8192;53.596;10.166;2023-11-21T07:41:18;6.30;99.90
16172;DHT22;8192;53.596;10.166;2023-11-21T07:43:45;6.30;99.90
16172;DHT22;8192;53.596;10.166;2023-11-21T07:46:12;6.30;99.90
16172;DHT22;8192;53.596;10.166;2023-11-21T07:48:40;6.40;99.90
16172;DHT22;8192;53.596;10.166;2023-11-21T07:51:10;6.30;99.90
16172;DHT22;8192;53.596;10.166;2023-11-21T07:53:38;6.40;99.90
16172;DHT22;8192;53.596;10.166;2023-11-21T07:56:07;6.40;99.90
16172;DHT22;8192;53.596;10.166;2023-11-21T07:58:34;6.30;99.90
16172;DHT22;8192;53.596;10.166;2023-11-21T08:01:03;6.20;99.90
16172;DHT22;8192;53.596;10.166;2023-11-21T08:03:30;6.20;99.90
16172;DHT22;8192;53.596;10.166;2023-11-21T08:05:57;6.30;99.90
16172;DHT22;8192;53.596;10.166;2023-11-21T08:08:26;6.50;99.90
16172;DHT22;8192;53.596;10.166;2023-11-21T08:10:53;6.60;99.90
16172;DHT22;8192;53.596;10.166;2023-11-21T08:13:23;6.60;99.90
16172;DHT22;8192;53.596;10.166;2023-11-21T08:15:50;6.60;99.90
16172;DHT22;8192;53.596;10.166;2023-11-21T08:18:17;6.80;99.90
16172;DHT22;8192;53.596;10.166;2023-11-21T08:20:44;6.80;99.90
16172;DHT22;8192;53.596;10.166;2023-11-21T08:23:14;6.70;99.90
16172;DHT22;8192;53.596;10.166;2023-11-21T08:25:43;6.80;99.90
16172;DHT22;8192;53.596;10.166;2023-11-21T08:28:11;6.70;99.90
16172;DHT22;8192;53.596;10.166;2023-11-21T08:30:37;6.70;99.90
16172;DHT22;8192;53.596;10.166;2023-11-21T08:33:05;6.60;99.90
16172;DHT22;8192;53.596;10.166;2023-11-21T08:35:35;6.50;99.90
16172;DHT22;8192;53.596;10.166;2023-11-21T08:38:02;6.60;99.90
16172;DHT22;8192;53.596;10.166;2023-11-21T08:40:29;6.70;99.90
16172;DHT22;8192;53.596;10.166;2023-11-21T08:42:58;6.60;99.90
16172;DHT22;8192;53.596;10.166;2023-11-21T08:45:25;6.70;99.90
16172;DHT22;8192;53.596;10.166;2023-11-21T08:47:52;6.70;99.90
16172;DHT22;8192;53.596;10.166;2023-11-21T08:50:19;6.70;99.90
16172;DHT22;8192;53.596;10.166;2023-11-21T08:52:47;6.70;99.90
16172;DHT22;8192;53.596;10.166;2023-11-21T08:55:15;6.80;99.90
16172;DHT22;8192;53.596;10.166;2023-11-21T08:57:44;6.70;99.90
16172;DHT22;8192;53.596;10.166;2023-11-21T09:00:13;6.70;99.90
16172;DHT22;8192;53.596;10.166;2023-11-21T09:02:42;6.70;99.90
16172;DHT22;8192;53.596;10.166;2023-11-21T09:05:10;6.80;99.90
16172;DHT22;8192;53.596;10.166;2023-11-21T09:07:38;6.80;99.90
16172;DHT22;8192;53.596;10.166;2023-11-21T09:10:07;6.80;99.90
16172;DHT22;8192;53.596;10.166;2023-11-21T09:12:35;6.80;99.90
16172;DHT22;8192;53.596;10.166;2023-11-21T09:15:03;6.80;99.90
16172;DHT22;8192;53.596;10.166;2023-11-21T09:17:32;6.90;99.90
16172;DHT22;8192;53.596;10.166;2023-11-21T09:20:01;7.00;99.90
16172;DHT22;8192;53.596;10.166;2023-11-21T09:22:31;7.10;99.90
16172;DHT22;8192;53.596;10.166;2023-11-21T09:24:59;7.20;99.90
16172;DHT22;8192;53.596;10.166;2023-11-21T09:27:26;7.20;99.90
16172;DHT22;8192;53.596;10.166;2023-11-21T09:29:53;7.30;99.90
16172;DHT22;8192;53.596;10.166;2023-11-21T09:32:21;7.40;99.90
16172;DHT22;8192;53.596;10.166;2023-11-21T09:34:50;7.40;99.90
16172;DHT22;8192;53.596;10.166;2023-11-21T09:37:17;7.30;99.90
16172;DHT22;8192;53.596;10.166;2023-11-21T09:39:45;7.30;99.90
16172;DHT22;8192;53.596;10.166;2023-11-21T09:42:30;7.40;99.90
16172;DHT22;8192;53.596;10.166;2023-11-21T09:45:02;7.40;99.90
16172;DHT22;8192;53.596;10.166;2023-11-21T09:47:30;7.30;99.90
16172;DHT22;8192;53.596;10.166;2023-11-21T09:50:01;7.40;99.90
16172;DHT22;8192;53.596;10.166;2023-11-21T09:52:29;7.30;99.90
16172;DHT22;8192;53.596;10.166;2023-11-21T09:54:58;7.40;99.90
16172;DHT22;8192;53.596;10.166;2023-11-21T09:57:27;7.40;99.90
16172;DHT22;8192;53.596;10.166;2023-11-21T09:59:55;7.40;99.90
16172;DHT22;8192;53.596;10.166;2023-11-21T10:02:26;7.40;99.90
16172;DHT22;8192;53.596;10.166;2023-11-21T10:04:58;7.40;99.90
16172;DHT22;8192;53.596;10.166;2023-11-21T10:07:28;7.50;99.90
16172;DHT22;8192;53.596;10.166;2023-11-21T10:09:57;7.50;99.90
16172;DHT22;8192;53.596;10.166;2023-11-21T10:12:27;7.50;99.90
16172;DHT22;8192;53.596;10.166;2023-11-21T10:14:58;7.50;99.90
16172;DHT22;8192;53.596;10.166;2023-11-21T10:17:28;7.60;99.90
16172;DHT22;8192;53.596;10.166;2023-11-21T10:19:57;7.60;99.90
16172;DHT22;8192;53.596;10.166;2023-11-21T10:22:26;7.70;99.90
16172;DHT22;8192;53.596;10.166;2023-11-21T10:24:54;7.80;99.90
16172;DHT22;8192;53.596;10.166;2023-11-21T10:27:21;7.80;99.90
16172;DHT22;8192;53.596;10.166;2023-11-21T10:29:51;7.90;99.90
16172;DHT22;8192;53.596;10.166;2023-11-21T10:32:18;8.00;99.90
16172;DHT22;8192;53.596;10.166;2023-11-21T10:34:56;8.00;99.90
16172;DHT22;8192;53.596;10.166;2023-11-21T10:37:23;8.20;99.90
16172;DHT22;8192;53.596;10.166;2023-11-21T10:39:51;8.20;99.90
16172;DHT22;8192;53.596;10.166;2023-11-21T10:42:18;8.20;99.90
16172;DHT22;8192;53.596;10.166;2023-11-21T10:44:46;8.00;99.90
16172;DHT22;8192;53.596;10.166;2023-11-21T10:47:14;7.80;99.90
16172;DHT22;8192;53.596;10.166;2023-11-21T10:49:41;7.80;99.90
16172;DHT22;8192;53.596;10.166;2023-11-21T10:52:08;7.80;99.90
16172;DHT22;8192;53.596;10.166;2023-11-21T10:54:43;7.70;99.90
16172;DHT22;8192;53.596;10.166;2023-11-21T10:57:15;7.60;99.90
16172;DHT22;8192;53.596;10.166;2023-11-21T10:59:46;7.60;99.90
16172;DHT22;8192;53.596;10.166;2023-11-21T11:02:19;7.50;99.90
16172;DHT22;8192;53.596;10.166;2023-11-21T11:04:49;7.60;99.90
16172;DHT22;8192;53.596;10.166;2023-11-21T11:07:16;7.50;99.90
16172;DHT22;8192;53.596;10.166;2023-11-21T11:09:44;7.60;99.90
16172;DHT22;8192;53.596;10.166;2023-11-21T11:12:14;7.70;99.90
16172;DHT22;8192;53.596;10.166;2023-11-21T11:14:42;7.70;99.90
16172;DHT22;8192;53.596;10.166;2023-11-21T11:17:10;7.70;99.90
16172;DHT22;8192;53.596;10.166;2023-11-21T11:19:38;7.70;99.90
16172;DHT22;8192;53.596;10.166;2023-11-21T11:22:13;7.70;99.90
16172;DHT22;8192;53.596;10.166;2023-11-21T11:24:56;7.70;99.90
16172;DHT22;8192;53.596;10.166;2023-11-21T11:27:34;7.60;99.90
16172;DHT22;8192;53.596;10.166;2023-11-21T11:30:11;7.60;99.90
16172;DHT22;8192;53.596;10.166;2023-11-21T11:32:49;7.80;99.90
16172;DHT22;8192;53.596;10.166;2023-11-21T11:35:26;7.90;99.90
16172;DHT22;8192;53.596;10.166;2023-11-21T11:37:58;7.90;99.90
16172;DHT22;8192;53.596;10.166;2023-11-21T11:40:38;7.80;99.90
16172;DHT22;8192;53.596;10.166;2023-11-21T11:43:07;7.60;99.90
16172;DHT22;8192;53.596;10.166;2023-11-21T11:45:35;7.70;99.90
16172;DHT22;8192;53.596;10.166;2023-11-21T11:48:06;7.60;99.90
16172;DHT22;8192;53.596;10.166;2023-11-21T11:50:35;7.50;99.90
16172;DHT22;8192;53.596;10.166;2023-11-21T11:53:15;7.50;99.90
16172;DHT22;8192;53.596;10.166;2023-11-21T11:55:43;7.60;99.90
16172;DHT22;8192;53.596;10.166;2023-11-21T11:58:12;7.50;99.90
16172;DHT22;8192;53.596;10.166;2023-11-21T12:00:39;7.40;99.90
16172;DHT22;8192;53.596;10.166;2023-11-21T12:03:08;7.50;99.90
16172;DHT22;8192;53.596;10.166;2023-11-21T12:05:36;7.50;99.90
16172;DHT22;8192;53.596;10.166;2023-11-21T12:08:05;7.50;99.90
16172;DHT22;8192;53.596;10.166;2023-11-21T12:10:34;7.50;99.90
16172;DHT22;8192;53.596;10.166;2023-11-21T12:13:04;7.60;99.90
16172;DHT22;8192;53.596;10.166;2023-11-21T12:15:34;7.60;99.90
16172;DHT22;8192;53.596;10.166;2023-11-21T12:18:02;7.50;99.90
16172;DHT22;8192;53.596;10.166;2023-11-21T12:20:30;7.40;99.90
16172;DHT22;8192;53.596;10.166;2023-11-21T12:22:59;7.40;99.90
16172;DHT22;8192;53.596;10.166;2023-11-21T12:25:28;7.40;99.90
16172;DHT22;8192;53.596;10.166;2023-11-21T12:27:57;7.30;99.90
16172;DHT22;8192;53.596;10.166;2023-11-21T12:30:26;7.20;99.90
16172;DHT22;8192;53.596;10.166;2023-11-21T12:32:55;7.30;99.90
16172;DHT22;8192;53.596;10.166;2023-11-21T12:35:25;7.20;99.90
16172;DHT22;8192;53.596;10.166;2023-11-21T12:37:53;7.20;99.90
16172;DHT22;8192;53.596;10.166;2023-11-21T12:40:23;7.20;99.90
16172;DHT22;8192;53.596;10.166;2023-11-21T12:42:51;7.20;99.90
16172;DHT22;8192;53.596;10.166;2023-11-21T12:45:20;7.20;99.90
16172;DHT22;8192;53.596;10.166;2023-11-21T12:47:49;7.20;99.90
16172;DHT22;8192;53.596;10.166;2023-11-21T12:50:20;7.10;99.90
16172;DHT22;8192;53.596;10.166;2023-11-21T12:52:49;7.00;99.90
16172;DHT22;8192;53.596;10.166;2023-11-21T12:55:19;6.90;99.90
16172;DHT22;8192;53.596;10.166;2023-11-21T12:57:48;7.00;99.90
16172;DHT22;8192;53.596;10.166;2023-11-21T13:00:18;6.90;99.90
16172;DHT22;8192;53.596;10.166;2023-11-21T13:02:54;6.80;99.90
16172;DHT22;8192;53.596;10.166;2023-11-21T13:05:33;6.80;99.90
16172;DHT22;8192;53.596;10.166;2023-11-21T13:08:01;6.90;99.90
16172;DHT22;8192;53.596;10.166;2023-11-21T13:10:30;6.90;99.90
16172;DHT22;8192;53.596;10.166;2023-11-21T13:12:58;6.90;99.90
16172;DHT22;8192;53.596;10.166;2023-11-21T13:15:26;6.90;99.90
16172;DHT22;8192;53.596;10.166;2023-11-21T13:17:54;6.90;99.90
16172;DHT22;8192;53.596;10.166;2023-11-21T13:20:23;6.90;99.90
16172;DHT22;8192;53.596;10.166;2023-11-21T13:22:53;7.00;99.90
16172;DHT22;8192;53.596;10.166;2023-11-21T13:25:23;6.90;99.90
16172;DHT22;8192;53.596;10.166;2023-11-21T13:27:52;6.80;99.90
16172;DHT22;8192;53.596;10.166;2023-11-21T13:30:19;6.80;99.90
16172;DHT22;8192;53.596;10.166;2023-11-21T13:32:52;6.90;99.90
16172;DHT22;8192;53.596;10.166;2023-11-21T13:35:23;6.90;99.90
16172;DHT22;8192;53.596;10.166;2023-11-21T13:38:03;6.80;99.90
16172;DHT22;8192;53.596;10.166;2023-11-21T13:40:32;6.70;99.90
16172;DHT22;8192;53.596;10.166;2023-11-21T13:43:00;6.70;99.90
16172;DHT22;8192;53.596;10.166;2023-11-21T13:45:30;6.80;99.90
16172;DHT22;8192;53.596;10.166;2023-11-21T13:47:57;6.70;99.90
16172;DHT22;8192;53.596;10.166;2023-11-21T13:50:25;6.70;99.90
16172;DHT22;8192;53.596;10.166;2023-11-21T13:52:59;6.70;99.90
16172;DHT22;8192;53.596;10.166;2023-11-21T13:55:29;6.70;99.90
16172;DHT22;8192;53.596;10.166;2023-11-21T13:57:56;6.80;99.90
16172;DHT22;8192;53.596;10.166;2023-11-21T14:00:25;6.60;99.90
16172;DHT22;8192;53.596;10.166;2023-11-21T14:03:09;6.70;99.90
16172;DHT22;8192;53.596;10.166;2023-11-21T14:05:44;6.70;99.90
16172;DHT22;8192;53.596;10.166;2023-11-21T14:08:14;6.60;99.90
16172;DHT22;8192;53.596;10.166;2023-11-21T14:10:45;6.60;99.90
16172;DHT22;8192;53.596;10.166;2023-11-21T14:13:16;6.60;99.90
16172;DHT22;8192;53.596;10.166;2023-11-21T14:15:43;6.50;99.90
16172;DHT22;8192;53.596;10.166;2023-11-21T14:18:11;6.50;99.90
16172;DHT22;8192;53.596;10.166;2023-11-21T14:20:43;6.50;99.90
16172;DHT22;8192;53.596;10.166;2023-11-21T14:23:10;6.50;99.90
16172;DHT22;8192;53.596;10.166;2023-11-21T14:25:38;6.40;99.90
16172;DHT22;8192;53.596;10.166;2023-11-21T14:28:07;6.40;99.90
16172;DHT22;8192;53.596;10.166;2023-11-21T14:30:37;6.30;99.90
16172;DHT22;8192;53.596;10.166;2023-11-21T14:33:05;6.30;99.90
16172;DHT22;8192;53.596;10.166;2023-11-21T14:35:34;6.20;99.90
16172;DHT22;8192;53.596;10.166;2023-11-21T14:38:00;6.10;99.90
16172;DHT22;8192;53.596;10.166;2023-11-21T14:40:30;6.00;99.90
16172;DHT22;8192;53.596;10.166;2023-11-21T14:43:02;5.90;99.90
16172;DHT22;8192;53.596;10.166;2023-11-21T14:45:31;5.90;99.90
16172;DHT22;8192;53.596;10.166;2023-11-21T14:47:58;5.90;99.90
16172;DHT22;8192;53.596;10.166;2023-11-21T14:50:32;5.90;99.90
16172;DHT22;8192;53.596;10.166;2023-11-21T14:53:12;5.90;99.90
16172;DHT22;8192;53.596;10.166;2023-11-21T14:55:39;5.90;99.90
16172;DHT22;8192;53.596;10.166;2023-11-21T14:58:20;5.80;99.90
16172;DHT22;8192;53.596;10.166;2023-11-21T15:00:53;5.90;99.90
16172;DHT22;8192;53.596;10.166;2023-11-21T15:03:23;5.90;99.90
16172;DHT22;8192;53.596;10.166;2023-11-21T15:06:09;5.80;99.90
16172;DHT22;8192;53.596;10.166;2023-11-21T15:08:54;5.80;99.90
16172;DHT22;8192;53.596;10.166;2023-11-21T15:11:39;5.70;99.90
16172;DHT22;8192;53.596;10.166;2023-11-21T15:14:08;5.60;99.90
16172;DHT22;8192;53.596;10.166;2023-11-21T15:16:35;5.60;99.90
16172;DHT22;8192;53.596;10.166;2023-11-21T15:19:05;5.50;99.90
16172;DHT22;8192;53.596;10.166;2023-11-21T15:21:36;5.40;99.90
16172;DHT22;8192;53.596;10.166;2023-11-21T15:24:04;5.30;99.90
16172;DHT22;8192;53.596;10.166;2023-11-21T15:26:32;5.30;99.90
16172;DHT22;8192;53.596;10.166;2023-11-21T15:28:59;5.20;99.90
16172;DHT22;8192;53.596;10.166;2023-11-21T15:31:27;5.20;99.90
16172;DHT22;8192;53.596;10.166;2023-11-21T15:33:54;5.10;99.90
16172;DHT22;8192;53.596;10.166;2023-11-21T15:36:25;5.10;99.90
16172;DHT22;8192;53.596;10.166;2023-11-21T15:38:55;5.10;99.90
16172;DHT22;8192;53.596;10.166;2023-11-21T15:41:22;5.10;99.90
16172;DHT22;8192;53.596;10.166;2023-11-21T15:43:49;5.10;99.90
16172;DHT22;8192;53.596;10.166;2023-11-21T15:46:17;5.20;99.90
16172;DHT22;8192;53.596;10.166;2023-11-21T15:48:46;5.20;99.90
16172;DHT22;8192;53.596;10.166;2023-11-21T15:51:16;5.20;99.90
16172;DHT22;8192;53.596;10.166;2023-11-21T15:53:44;5.20;99.90